createdAt,value
2018-06-09T00:04:58.480Z,53.73
2018-06-09T00:10:00.687Z,53.19
2018-06-09T00:15:02.940Z,52.94
2018-06-09T00:20:05.169Z,53.02
2018-06-09T00:25:07.390Z,52.46
2018-06-09T00:30:09.569Z,52.92
2018-06-09T00:35:11.759Z,53.06
2018-06-09T00:40:14.034Z,53.65
2018-06-09T00:45:16.226Z,54.39
2018-06-09T00:50:18.437Z,54.20
2018-06-09T00:55:20.578Z,54.29
2018-06-09T01:00:22.782Z,54.82
2018-06-09T01:05:24.996Z,54.58
2018-06-09T01:10:27.194Z,54.71
2018-06-09T01:15:29.365Z,54.62
2018-06-09T01:20:31.568Z,54.56
2018-06-09T01:25:33.770Z,53.81
2018-06-09T01:30:35.932Z,53.49
2018-06-09T01:35:38.088Z,54.55
2018-06-09T01:40:40.301Z,54.73
2018-06-09T01:45:42.466Z,54.48
2018-06-09T01:50:44.652Z,54.81
2018-06-09T01:55:46.604Z,55.36
2018-06-09T02:00:48.807Z,55.93
2018-06-09T02:05:50.972Z,55.72
2018-06-09T02:10:53.163Z,56.16
2018-06-09T02:15:55.326Z,55.81
2018-06-09T02:20:57.537Z,56.03
2018-06-09T02:25:59.714Z,56.17
2018-06-09T02:31:01.905Z,56.84
2018-06-09T02:36:04.732Z,56.65
2018-06-09T02:41:06.940Z,57.32
2018-06-09T02:46:09.164Z,57.90
2018-06-09T02:51:11.351Z,57.22
2018-06-09T02:56:13.545Z,57.67
2018-06-09T03:01:15.722Z,56.98
2018-06-09T03:06:17.908Z,57.05
2018-06-09T03:11:20.056Z,57.92
2018-06-09T03:16:22.236Z,58.37
2018-06-09T03:21:24.406Z,57.66
2018-06-09T03:26:26.562Z,57.50
2018-06-09T03:31:28.695Z,58.24
2018-06-09T03:36:30.843Z,57.44
2018-06-09T03:41:33.065Z,57.44
2018-06-09T03:46:35.200Z,56.74
2018-06-09T03:51:37.386Z,56.75
2018-06-09T03:56:39.614Z,55.08
2018-06-09T04:01:41.817Z,55.78
2018-06-09T04:06:44.019Z,55.80
2018-06-09T04:11:46.209Z,55.42
2018-06-09T04:16:49.515Z,53.69
2018-06-09T04:21:51.682Z,53.39
2018-06-09T04:26:53.869Z,52.41
2018-06-09T04:31:56.063Z,51.56
2018-06-09T04:36:58.214Z,51.16
2018-06-09T04:42:00.401Z,51.71
2018-06-09T04:47:02.601Z,51.60
2018-06-09T04:52:04.823Z,51.32
2018-06-09T04:57:06.989Z,49.01
2018-06-09T05:02:09.167Z,49.85
2018-06-09T05:07:11.353Z,49.77
2018-06-09T05:12:13.545Z,48.77
2018-06-09T05:17:15.713Z,48.24
2018-06-09T05:22:17.876Z,48.72
2018-06-09T05:27:20.051Z,45.41
2018-06-09T05:32:22.231Z,44.88
2018-06-09T05:37:24.409Z,44.89
2018-06-09T05:42:26.620Z,48.22
2018-06-09T05:47:28.790Z,47.14
2018-06-09T05:52:30.970Z,45.58
2018-06-09T05:57:33.132Z,45.24
2018-06-09T06:02:35.346Z,44.37
2018-06-09T06:07:37.602Z,43.22
2018-06-09T06:12:39.823Z,44.53
2018-06-09T06:17:42.065Z,45.10
2018-06-09T06:22:44.260Z,44.19
2018-06-09T06:27:46.462Z,43.44
2018-06-09T06:32:48.641Z,43.28
2018-06-09T06:37:50.861Z,43.54
2018-06-09T06:42:53.070Z,44.57
2018-06-09T06:47:55.258Z,43.88
2018-06-09T06:52:57.424Z,43.21
2018-06-09T06:57:59.609Z,42.25
2018-06-09T07:03:01.773Z,40.25
2018-06-09T07:08:04.030Z,38.49
2018-06-09T07:13:06.197Z,37.71
2018-06-09T07:18:08.392Z,36.79
2018-06-09T07:23:10.572Z,37.13
2018-06-09T07:28:12.740Z,36.71
2018-06-09T07:33:14.967Z,36.85
2018-06-09T07:38:17.153Z,36.81
2018-06-09T07:43:19.373Z,37.14
2018-06-09T07:48:21.595Z,34.22
2018-06-09T07:53:23.790Z,33.49
2018-06-09T07:58:26.020Z,33.85
2018-06-09T08:03:28.237Z,34.44
2018-06-09T08:08:30.434Z,34.94
2018-06-09T08:13:32.618Z,35.92
2018-06-09T08:18:34.819Z,34.92
2018-06-09T08:23:36.979Z,33.21
2018-06-09T08:28:39.159Z,33.91
2018-06-09T08:33:41.347Z,33.89
2018-06-09T08:38:43.542Z,33.46
2018-06-09T08:43:45.844Z,32.85
2018-06-09T08:48:48.094Z,32.43
2018-06-09T08:53:50.328Z,32.78
2018-06-09T08:58:52.567Z,34.46
2018-06-09T09:03:54.753Z,33.77
2018-06-09T09:08:56.924Z,34.65
2018-06-09T09:13:59.162Z,34.66
2018-06-09T09:19:01.336Z,36.15
2018-06-09T09:24:03.556Z,37.59
2018-06-09T09:29:05.743Z,38.60
2018-06-09T09:34:07.911Z,39.03
2018-06-09T09:39:10.086Z,38.33
2018-06-09T09:44:12.276Z,37.83
2018-06-09T09:49:14.459Z,35.60
2018-06-09T09:54:16.625Z,36.74
2018-06-09T09:59:19.015Z,37.60
2018-06-09T10:04:21.206Z,37.76
2018-06-09T10:09:23.457Z,38.78
2018-06-09T10:14:25.639Z,40.36
2018-06-09T10:19:27.841Z,41.51
2018-06-09T10:24:30.039Z,43.95
2018-06-09T10:29:32.248Z,43.94
2018-06-09T10:34:34.453Z,45.07
2018-06-09T10:39:36.710Z,44.85
2018-06-09T10:44:38.952Z,44.57
2018-06-09T10:49:41.161Z,45.55
2018-06-09T10:54:43.351Z,46.04
2018-06-09T10:59:45.532Z,46.60
2018-06-09T11:04:47.733Z,46.42
2018-06-09T11:09:49.960Z,47.00
2018-06-09T11:14:52.218Z,47.12
2018-06-09T11:19:54.437Z,47.31
2018-06-09T11:24:56.642Z,48.29
2018-06-09T11:29:58.900Z,49.33
2018-06-09T11:35:01.044Z,49.68
2018-06-09T11:40:03.298Z,49.67
2018-06-09T11:45:05.565Z,50.36
2018-06-09T11:50:07.771Z,50.17
2018-06-09T11:55:10.026Z,49.90
2018-06-09T12:00:12.247Z,49.48
2018-06-09T12:05:14.418Z,50.09
2018-06-09T12:10:16.635Z,48.47
2018-06-09T12:15:18.908Z,48.17
2018-06-09T12:20:21.106Z,48.18
2018-06-09T12:25:23.360Z,47.12
2018-06-09T12:30:25.575Z,47.92
2018-06-09T12:35:27.774Z,47.10
2018-06-09T12:40:29.982Z,48.81
2018-06-09T12:45:32.213Z,48.84
2018-06-09T12:50:34.462Z,49.08
2018-06-09T12:55:36.690Z,48.66
2018-06-09T13:00:38.880Z,48.04
2018-06-09T13:05:41.096Z,47.63
2018-06-09T13:10:43.333Z,44.57
2018-06-09T13:15:45.554Z,44.08
2018-06-09T13:20:47.789Z,44.04
2018-06-09T13:25:49.998Z,42.62
2018-06-09T13:30:52.200Z,43.75
2018-06-09T13:35:54.476Z,42.07
2018-06-09T13:40:56.570Z,42.47
2018-06-09T13:45:58.934Z,42.05
2018-06-09T13:51:01.145Z,40.48
2018-06-09T13:56:03.404Z,37.81
2018-06-09T14:01:05.690Z,34.98
2018-06-09T14:06:07.916Z,33.51
2018-06-09T14:11:10.102Z,35.08
2018-06-09T14:16:12.368Z,35.60
2018-06-09T14:21:14.615Z,38.31
2018-06-09T14:26:16.821Z,38.87
2018-06-09T14:31:19.058Z,40.20
2018-06-09T14:36:21.303Z,41.96
2018-06-09T14:41:23.477Z,41.85
2018-06-09T14:46:25.757Z,43.08
2018-06-09T14:51:27.923Z,44.24
2018-06-09T14:56:30.114Z,44.45
2018-06-09T15:01:32.296Z,43.64
2018-06-09T15:06:34.571Z,44.46
2018-06-09T15:11:36.784Z,44.36
2018-06-09T15:16:39.051Z,43.55
2018-06-09T15:21:41.204Z,43.93
2018-06-09T15:26:43.368Z,43.45
2018-06-09T15:31:45.596Z,43.02
2018-06-09T15:36:47.817Z,41.39
2018-06-09T15:41:50.013Z,41.79
2018-06-09T15:46:52.258Z,39.96
2018-06-09T15:51:54.472Z,38.69
2018-06-09T15:56:56.692Z,37.00
2018-06-09T16:01:58.887Z,35.34
2018-06-09T16:07:01.167Z,34.84
2018-06-09T16:12:03.428Z,35.37
2018-06-09T16:17:05.595Z,34.27
2018-06-09T16:22:07.819Z,35.00
2018-06-09T16:27:10.037Z,35.73
2018-06-09T16:32:12.292Z,37.89
2018-06-09T16:37:14.562Z,38.37
2018-06-09T16:42:16.756Z,39.79
2018-06-09T16:47:19.082Z,39.62
2018-06-09T16:52:21.311Z,40.19
2018-06-09T16:57:23.527Z,39.89
2018-06-09T17:02:25.711Z,39.02
2018-06-09T17:07:27.967Z,40.06
2018-06-09T17:12:30.174Z,40.34
2018-06-09T17:17:32.464Z,40.85
2018-06-09T17:22:34.762Z,41.04
2018-06-09T17:27:36.924Z,40.94
2018-06-09T17:32:39.136Z,39.94
2018-06-09T17:37:41.332Z,40.63
2018-06-09T17:42:43.571Z,41.45
2018-06-09T17:47:45.807Z,42.93
2018-06-09T17:52:48.014Z,44.08
2018-06-09T17:57:50.209Z,45.03
2018-06-09T18:02:52.431Z,45.38
2018-06-09T18:07:54.653Z,46.01
2018-06-09T18:12:56.830Z,46.81
2018-06-09T18:17:59.034Z,46.40
2018-06-09T18:23:01.336Z,45.70
2018-06-09T18:28:03.663Z,46.07
2018-06-09T18:33:05.833Z,46.82
2018-06-09T18:38:07.988Z,47.43
2018-06-09T18:43:10.192Z,47.87
2018-06-09T18:48:12.423Z,47.57
2018-06-09T18:53:14.630Z,47.02
2018-06-09T18:58:16.887Z,48.22
2018-06-09T19:03:19.100Z,47.93
2018-06-09T19:08:21.344Z,48.33
2018-06-09T19:13:23.569Z,48.88
2018-06-09T19:18:25.812Z,48.28
2018-06-09T19:23:28.006Z,48.74
2018-06-09T19:28:30.285Z,48.84
2018-06-09T19:33:32.617Z,49.18
2018-06-09T19:38:34.847Z,50.21
2018-06-09T19:43:37.109Z,51.19
2018-06-09T19:48:39.413Z,50.76
2018-06-09T19:53:42.131Z,51.51
2018-06-09T19:58:44.622Z,50.82
2018-06-09T20:03:46.928Z,51.51
2018-06-09T20:08:49.204Z,52.12
2018-06-09T20:13:51.410Z,52.39
2018-06-09T20:18:53.604Z,52.75
2018-06-09T20:23:55.821Z,52.42
2018-06-09T20:28:58.077Z,51.58
2018-06-09T20:34:00.401Z,51.72
2018-06-09T20:39:03.927Z,52.72
2018-06-09T20:44:06.116Z,52.39
2018-06-09T20:49:08.823Z,52.52
2018-06-09T20:54:11.074Z,52.32
2018-06-09T20:59:13.297Z,51.41
2018-06-09T21:04:15.565Z,51.72
2018-06-09T21:09:17.774Z,52.88
2018-06-09T21:14:20.041Z,53.84
2018-06-09T21:19:22.207Z,53.48
2018-06-09T21:24:26.363Z,53.48
2018-06-09T21:29:33.712Z,53.98
2018-06-09T21:34:54.202Z,54.20
2018-06-09T21:40:04.597Z,53.83
2018-06-09T21:45:08.846Z,52.89
2018-06-09T21:50:13.289Z,53.38
2018-06-09T21:55:16.336Z,53.28
2018-06-09T22:00:19.379Z,52.64
2018-06-09T22:05:22.437Z,53.27
2018-06-09T22:10:27.261Z,52.79
2018-06-09T22:15:30.045Z,51.28
2018-06-09T22:20:32.948Z,50.80
2018-06-09T22:25:42.765Z,50.84
2018-06-09T22:30:46.344Z,51.08
2018-06-09T22:35:49.311Z,51.52
2018-06-09T22:40:52.047Z,50.82
2018-06-09T22:45:55.445Z,50.04
2018-06-09T22:50:58.551Z,49.73
2018-06-09T22:56:02.192Z,51.20
2018-06-09T23:01:04.958Z,52.05
2018-06-09T23:06:07.883Z,51.53
2018-06-09T23:11:11.363Z,51.82
2018-06-09T23:16:14.489Z,52.03
2018-06-09T23:21:17.388Z,51.46
2018-06-09T23:26:20.744Z,52.80
2018-06-09T23:31:24.205Z,52.77
2018-06-09T23:36:26.453Z,52.26
2018-06-09T23:41:28.623Z,52.11
2018-06-09T23:46:30.812Z,52.14
2018-06-09T23:51:33.011Z,52.68
2018-06-09T23:56:35.151Z,52.78
